Time;durP1;ratioP1;P1;durP2;ratioP2;P2;SDS_P1;SDS_P2;PMS_P1;PMS_P2;Temp;Humidity;BMP_temperature;BMP_pressure;BME280_temperature;BME280_humidity;BME280_pressure;Samples;Min_cycle;Max_cycle;Signal;HPM_P1;HPM_P2
2022/04/28 00:02:25;;;;;;;2.20;1.70;;;;;;;20.27;44.44;100862.36;1771415;80;21189;-86
2022/04/28 00:04:51;;;;;;;2.08;1.62;;;;;;;20.26;44.44;100858.78;1770846;80;21368;-86
2022/04/28 00:07:17;;;;;;;2.30;1.62;;;;;;;20.25;44.46;100868.19;1771295;80;21675;-86
2022/04/28 00:09:43;;;;;;;2.98;1.80;;;;;;;20.26;44.46;100879.50;1770344;81;21338;-86
2022/04/28 00:12:10;;;;;;;2.50;1.80;;;;;;;20.26;44.49;100882.27;1770807;80;20976;-86
2022/04/28 00:14:37;;;;;;;2.08;1.55;;;;;;;20.26;44.51;100887.79;1751855;81;20980;-86
2022/04/28 00:17:04;;;;;;;2.60;1.87;;;;;;;20.27;44.51;100887.23;1771199;80;21723;-86
2022/04/28 00:19:30;;;;;;;3.02;1.82;;;;;;;20.26;44.53;100881.44;1770877;81;21428;-86
2022/04/28 00:21:56;;;;;;;2.00;1.65;;;;;;;20.26;44.56;100887.79;1771414;80;21765;-86
2022/04/28 00:24:22;;;;;;;2.27;1.70;;;;;;;20.26;44.57;100891.94;1771072;80;21437;-86
2022/04/28 00:26:48;;;;;;;3.02;1.60;;;;;;;20.25;44.59;100886.71;1770947;79;21036;-86
2022/04/28 00:29:14;;;;;;;2.30;1.72;;;;;;;20.25;44.60;100877.04;1747145;80;20980;-86
2022/04/28 00:31:40;;;;;;;3.15;1.85;;;;;;;20.25;44.62;100870.13;1771325;80;21089;-86
2022/04/28 00:34:07;;;;;;;1.80;1.40;;;;;;;20.25;44.64;100869.58;1770819;80;21434;-86
2022/04/28 00:36:33;;;;;;;2.10;1.70;;;;;;;20.25;44.66;100874.28;1771242;81;20917;-86
2022/04/28 00:38:59;;;;;;;2.70;1.50;;;;;;;20.26;44.65;100863.48;1771242;80;20956;-86
2022/04/28 00:41:25;;;;;;;3.47;1.85;;;;;;;20.25;44.65;100859.08;1770788;80;21365;-86
2022/04/28 00:43:53;;;;;;;2.60;1.70;;;;;;;20.25;44.66;100857.70;1775944;80;21156;-86
2022/04/28 00:46:20;;;;;;;2.50;1.70;;;;;;;20.25;44.68;100846.66;1746686;81;21487;-86
2022/04/28 00:51:32;;;;;;;1.57;1.35;;;;;;;20.25;44.68;100834.22;1746238;81;20969;-86
2022/04/28 00:53:59;;;;;;;2.47;1.70;;;;;;;20.26;44.69;100842.77;1776079;80;21020;-86
2022/04/28 00:56:28;;;;;;;2.33;1.60;;;;;;;20.24;44.72;100838.92;1746816;82;21233;-86
2022/04/28 00:58:55;;;;;;;3.80;2.08;;;;;;;20.25;44.72;100840.56;1776722;80;21331;-86
2022/04/28 01:01:21;;;;;;;2.12;1.80;;;;;;;20.24;44.76;100838.92;1746408;81;21297;-86
2022/04/28 01:03:48;;;;;;;2.90;1.90;;;;;;;20.24;44.76;100835.38;1776415;80;21421;-86
2022/04/28 01:06:14;;;;;;;1.85;1.70;;;;;;;20.24;44.78;100826.49;1776313;80;21333;-85
2022/04/28 01:08:40;;;;;;;1.80;1.50;;;;;;;20.23;44.80;100822.12;1746607;82;21262;-86
2022/04/28 01:11:07;;;;;;;1.92;1.40;;;;;;;20.24;44.80;100816.03;1776272;80;21031;-86
2022/04/28 01:13:33;;;;;;;3.77;1.72;;;;;;;20.24;44.81;100824.33;1782040;80;20987;-86
2022/04/28 01:15:59;;;;;;;2.40;1.70;;;;;;;20.23;44.86;100824.88;1746612;81;21159;-86
2022/04/28 01:18:25;;;;;;;2.00;1.65;;;;;;;20.24;44.86;100836.75;1776465;79;20917;-86
2022/04/28 01:20:51;;;;;;;2.67;1.75;;;;;;;20.23;44.84;100840.08;1776295;80;21125;-86
2022/04/28 01:23:18;;;;;;;2.52;1.77;;;;;;;20.24;44.87;100842.28;1746377;81;21365;-86
2022/04/28 01:25:44;;;;;;;2.47;1.87;;;;;;;20.23;44.88;100848.93;1776578;79;20901;-86
2022/04/28 01:28:11;;;;;;;2.42;1.70;;;;;;;20.24;44.90;100856.09;1746767;81;21421;-86
2022/04/28 01:30:37;;;;;;;2.83;1.60;;;;;;;20.23;44.90;100859.42;1776143;80;21026;-86
2022/04/28 01:33:09;;;;;;;2.22;1.72;;;;;;;20.24;44.93;100875.44;1723696;82;21017;-86
2022/04/28 01:35:36;;;;;;;3.27;1.82;;;;;;;20.24;44.93;100894.77;1776396;80;21433;-86
2022/04/28 01:38:02;;;;;;;2.25;1.62;;;;;;;20.23;44.96;100906.94;1775733;80;21428;-85
2022/04/28 01:40:28;;;;;;;3.10;1.67;;;;;;;20.23;44.96;100926.28;1776438;80;21007;-86
2022/04/28 01:42:54;;;;;;;2.15;1.52;;;;;;;20.23;45.00;100947.82;1776185;80;21454;-86
2022/04/28 01:45:21;;;;;;;2.62;1.70;;;;;;;20.23;45.03;100966.34;1776394;80;20961;-86
2022/04/28 01:47:47;;;;;;;2.37;1.90;;;;;;;20.23;45.02;100978.77;1776390;80;20881;-86
2022/04/28 01:50:13;;;;;;;2.60;1.82;;;;;;;20.23;45.05;100987.88;1776461;79;21410;-86
2022/04/28 01:55:24;;;;;;;2.08;1.70;;;;;;;20.22;45.09;101013.05;1725733;82;21780;-86
2022/04/28 01:57:50;;;;;;;2.47;1.87;;;;;;;20.23;45.11;101018.83;1776449;80;21206;-86
2022/04/28 02:00:16;;;;;;;3.58;1.95;;;;;;;20.21;45.12;101017.75;1776414;79;20987;-86
2022/04/28 02:02:43;;;;;;;3.40;1.80;;;;;;;20.22;45.13;101013.05;1746865;81;21017;-86
2022/04/28 02:05:10;;;;;;;2.30;1.77;;;;;;;20.22;45.15;101016.63;1776241;80;21047;-86
2022/04/28 02:07:37;;;;;;;2.92;1.85;;;;;;;20.22;45.16;101022.16;1746838;81;21095;-86
2022/04/28 02:10:04;;;;;;;2.25;1.90;;;;;;;20.21;45.16;101021.89;1776563;80;21731;-85
2022/04/28 02:12:30;;;;;;;2.17;1.70;;;;;;;20.22;45.18;101021.33;1746524;81;21258;-86
2022/04/28 02:14:56;;;;;;;2.70;1.77;;;;;;;20.21;45.18;101002.55;1776672;80;21359;-86
2022/04/28 02:17:25;;;;;;;2.25;1.82;;;;;;;20.21;45.19;100995.65;1741683;82;20872;-86
2022/04/28 02:19:51;;;;;;;2.55;1.80;;;;;;;20.22;45.19;100996.47;1776848;80;21370;-86
2022/04/28 02:22:17;;;;;;;2.40;2.10;;;;;;;20.21;45.20;100999.80;1774286;80;21272;-86
2022/04/28 02:24:43;;;;;;;2.60;2.12;;;;;;;20.22;45.22;100997.84;1753042;80;21405;-86
2022/04/28 02:27:09;;;;;;;2.30;1.85;;;;;;;20.20;45.23;100994.00;1743768;80;20912;-86
2022/04/28 02:29:35;;;;;;;2.67;2.00;;;;;;;20.22;45.24;100992.33;1742198;82;20865;-86
2022/04/28 02:32:01;;;;;;;3.17;2.10;;;;;;;20.21;45.23;100993.45;1746868;81;20965;-86
2022/04/28 02:34:28;;;;;;;2.42;2.00;;;;;;;20.22;45.24;101004.75;1775981;80;21745;-86
2022/04/28 02:36:54;;;;;;;2.45;1.70;;;;;;;20.21;45.23;100998.97;1746832;82;21013;-86
2022/04/28 02:39:20;;;;;;;2.20;2.00;;;;;;;20.21;45.24;100998.41;1775863;80;21482;-86
2022/04/28 02:41:46;;;;;;;2.75;2.08;;;;;;;20.20;45.27;100985.72;1776121;80;21460;-86
2022/04/28 02:44:12;;;;;;;3.72;2.30;;;;;;;20.20;45.25;100985.72;1713545;81;20962;-86
2022/04/28 02:46:46;;;;;;;2.62;2.12;;;;;;;20.21;45.25;100990.13;1737335;82;21551;-86
2022/04/28 02:49:09;;;;;;;2.55;2.00;;;;;;;20.22;45.26;100992.33;1735704;82;21334;-86
2022/04/28 02:51:36;;;;;;;2.65;2.20;;;;;;;20.21;45.27;100986.53;1737417;81;20988;-86
2022/04/28 02:54:03;;;;;;;4.28;2.27;;;;;;;20.21;45.28;100982.39;1737061;81;20937;-86
2022/04/28 02:56:29;;;;;;;2.77;2.35;;;;;;;20.20;45.28;100976.64;1737204;81;21555;-86
2022/04/28 02:58:55;;;;;;;2.60;2.22;;;;;;;20.20;45.30;100971.91;1737598;81;21251;-86
2022/04/28 03:01:23;;;;;;;3.27;2.35;;;;;;;20.20;45.30;100980.19;1737377;81;20976;-86
2022/04/28 03:03:49;;;;;;;3.52;2.37;;;;;;;20.20;45.31;100978.02;1737308;81;20972;-86
2022/04/28 03:11:48;;;;;;;3.37;2.17;;;;;;;20.20;45.34;100972.50;1737482;82;21793;-86
2022/04/28 03:14:15;;;;;;;2.55;2.35;;;;;;;20.19;45.32;100981.34;1736908;82;20976;-86
2022/04/28 03:16:41;;;;;;;2.70;2.50;;;;;;;20.20;45.34;100979.41;1737246;81;20972;-86
2022/04/28 03:19:08;;;;;;;2.65;2.20;;;;;;;20.20;45.37;100986.31;1737534;82;20996;-86
2022/04/28 03:21:34;;;;;;;3.12;2.45;;;;;;;20.19;45.35;100986.87;1737084;81;20906;-86
2022/04/28 03:24:01;;;;;;;3.37;2.40;;;;;;;20.20;45.37;100978.02;1730832;82;21523;-86
2022/04/28 03:26:28;;;;;;;4.58;2.45;;;;;;;20.20;45.37;100964.21;1736888;81;20859;-86
2022/04/28 03:28:56;;;;;;;3.08;2.12;;;;;;;20.19;45.35;100950.14;1737307;81;20984;-86
2022/04/28 03:31:22;;;;;;;3.25;2.50;;;;;;;20.20;45.38;100947.63;1737225;82;21044;-86
2022/04/28 03:33:48;;;;;;;2.50;2.30;;;;;;;20.19;45.37;100948.19;1737178;82;21004;-86
2022/04/28 03:38:59;;;;;;;2.80;2.17;;;;;;;20.20;45.40;100920.01;1726321;82;21354;-86
2022/04/28 03:41:25;;;;;;;3.45;2.25;;;;;;;20.20;45.38;100925.53;1737137;81;21493;-86
2022/04/28 03:43:51;;;;;;;4.28;2.45;;;;;;;20.19;45.40;100928.03;1723391;81;20921;-86
2022/04/28 03:46:18;;;;;;;3.58;2.35;;;;;;;20.19;45.40;100939.09;1737360;82;21025;-86
2022/04/28 03:48:45;;;;;;;3.75;2.40;;;;;;;20.18;45.41;100947.11;1737157;81;21448;-86
2022/04/28 03:51:11;;;;;;;3.35;2.12;;;;;;;20.19;45.40;100948.75;1737360;82;20948;-86
2022/04/28 03:53:37;;;;;;;2.72;2.10;;;;;;;20.19;45.41;100936.33;1737178;82;21001;-86
2022/04/28 03:56:05;;;;;;;2.08;1.82;;;;;;;20.19;45.45;100952.34;1737222;82;20997;-86
2022/04/28 03:58:31;;;;;;;3.72;2.22;;;;;;;20.19;45.46;100976.37;1737329;82;21470;-86
2022/04/28 04:00:57;;;;;;;2.65;2.20;;;;;;;20.18;45.48;100989.37;1737153;82;21236;-86
2022/04/28 04:03:23;;;;;;;2.40;2.20;;;;;;;20.19;45.47;101002.06;1736701;81;20950;-86
2022/04/28 04:05:49;;;;;;;3.90;2.15;;;;;;;20.18;45.47;100999.04;1737072;81;20996;-86
2022/04/28 04:08:15;;;;;;;2.37;1.85;;;;;;;20.19;45.48;100991.02;1737200;81;20957;-86
2022/04/28 04:10:41;;;;;;;2.80;2.10;;;;;;;20.19;45.47;100984.11;1737213;82;20965;-86
2022/04/28 04:13:08;;;;;;;2.25;1.82;;;;;;;20.19;45.49;100982.73;1737351;82;21162;-86
2022/04/28 04:15:34;;;;;;;2.45;2.00;;;;;;;20.19;45.49;100962.00;1737025;82;21024;-86
2022/04/28 04:18:00;;;;;;;3.75;2.00;;;;;;;20.18;45.48;100932.73;1736949;82;20973;-86
2022/04/28 04:20:27;;;;;;;4.35;2.45;;;;;;;20.19;45.45;100910.08;1737199;82;20996;-86
2022/04/28 04:22:54;;;;;;;3.17;2.12;;;;;;;20.18;45.47;100885.78;1737455;82;21001;-86
2022/04/28 04:25:20;;;;;;;2.90;2.00;;;;;;;20.18;45.48;100864.23;1736878;82;21814;-86
2022/04/28 04:27:46;;;;;;;3.00;2.10;;;;;;;20.18;45.50;100854.58;1737000;82;21490;-86
2022/04/28 04:32:58;;;;;;;3.35;2.25;;;;;;;20.16;45.54;100801.57;1736884;82;21136;-86
2022/04/28 04:35:24;;;;;;;3.08;2.40;;;;;;;20.14;45.55;100782.57;1737069;82;20979;-86
2022/04/28 04:37:56;;;;;;;3.10;2.27;;;;;;;20.15;45.56;100783.39;1736309;82;21078;-86
2022/04/28 04:40:22;;;;;;;3.35;1.95;;;;;;;20.14;45.57;100795.56;1737113;82;21004;-86
2022/04/28 04:42:48;;;;;;;3.60;1.95;;;;;;;20.14;45.57;100798.32;1737106;82;20973;-86
2022/04/28 04:45:14;;;;;;;2.70;2.00;;;;;;;20.14;45.58;100804.67;1771923;80;20858;-86
2022/04/28 04:47:40;;;;;;;2.77;1.90;;;;;;;20.13;45.60;100818.22;1773838;80;20992;-86
2022/04/28 04:50:08;;;;;;;2.55;1.90;;;;;;;20.14;45.58;100825.95;1774275;80;21208;-86
2022/04/28 04:52:34;;;;;;;2.27;1.85;;;;;;;20.14;45.57;100832.29;1773765;80;21452;-86
2022/04/28 04:55:01;;;;;;;3.70;2.15;;;;;;;20.15;45.62;100832.55;1772916;79;21039;-86
2022/04/28 04:57:28;;;;;;;2.40;2.00;;;;;;;20.14;45.63;100837.81;1774013;79;21401;-86
2022/04/28 05:00:02;;;;;;;3.08;2.10;;;;;;;20.14;45.71;100856.33;1755603;80;20981;-86
2022/04/28 05:02:28;;;;;;;3.65;2.25;;;;;;;20.13;45.71;100870.70;1777076;78;21294;-86
2022/04/28 05:04:54;;;;;;;3.42;2.15;;;;;;;20.13;45.74;100862.97;1773690;80;20882;-86
2022/04/28 05:07:20;;;;;;;5.53;2.90;;;;;;;20.11;45.81;100870.77;1776973;79;20990;-86
2022/04/28 05:09:46;;;;;;;3.22;2.20;;;;;;;20.10;45.92;100885.70;1773335;80;20881;-86
2022/04/28 05:12:12;;;;;;;4.65;2.50;;;;;;;20.07;45.94;100883.80;1773723;80;20913;-86
2022/04/28 05:14:38;;;;;;;4.55;2.25;;;;;;;20.07;46.00;100885.19;1774056;80;20917;-86
2022/04/28 05:17:04;;;;;;;3.90;3.05;;;;;;;20.07;46.04;100885.19;1773768;80;21417;-86
2022/04/28 05:19:30;;;;;;;4.15;3.37;;;;;;;20.08;46.09;100881.86;1774316;80;20921;-86
2022/04/28 05:21:56;;;;;;;5.70;4.55;;;;;;;20.12;46.12;100887.02;1773978;79;20911;-86
2022/04/28 05:24:22;;;;;;;5.85;5.10;;;;;;;20.15;46.14;100880.89;1783040;79;20990;-86
2022/04/28 05:26:48;;;;;;;6.05;4.83;;;;;;;20.18;46.12;100883.02;1779657;79;21283;-86
2022/04/28 05:29:14;;;;;;;5.75;4.03;;;;;;;20.23;46.15;100888.98;1773768;79;21426;-86
2022/04/28 05:31:40;;;;;;;5.45;4.20;;;;;;;20.28;46.16;100898.54;1775063;79;20908;-86
2022/04/28 05:34:06;;;;;;;3.95;3.45;;;;;;;20.34;46.13;100904.20;1779823;79;20988;-86
2022/04/28 05:36:33;;;;;;;5.00;3.62;;;;;;;20.40;46.08;100917.61;1761606;80;21413;-86
2022/04/28 05:38:59;;;;;;;4.70;3.55;;;;;;;20.46;46.04;100923.24;1745920;82;21216;-86
2022/04/28 05:41:28;;;;;;;6.85;4.15;;;;;;;20.53;45.95;100935.26;1782831;79;20957;-86
2022/04/28 05:46:39;;;;;;;4.25;3.20;;;;;;;20.68;45.78;100949.25;1794777;79;20853;-86
2022/04/28 05:49:05;;;;;;;5.50;3.83;;;;;;;20.76;45.70;100942.96;1783125;79;21003;-86
2022/04/28 05:51:31;;;;;;;4.65;2.87;;;;;;;20.81;45.63;100949.19;1786792;78;21134;-86
2022/04/28 05:53:57;;;;;;;4.90;3.02;;;;;;;20.86;45.56;100950.45;1782661;80;20936;-86
2022/04/28 05:56:24;;;;;;;5.15;2.90;;;;;;;20.92;45.53;100962.17;1782614;80;20884;-86
2022/04/28 05:58:50;;;;;;;3.92;2.75;;;;;;;20.97;45.52;100967.58;1782674;80;20947;-87
2022/04/28 06:01:16;;;;;;;3.75;2.72;;;;;;;21.02;45.48;100972.16;1780314;79;20912;-87
2022/04/28 06:03:43;;;;;;;4.58;2.60;;;;;;;21.05;45.43;100971.55;1786887;79;21810;-84
2022/04/28 06:06:09;;;;;;;4.62;2.37;;;;;;;21.10;45.40;100969.45;1782551;80;20952;-87
2022/04/28 06:08:36;;;;;;;3.05;2.22;;;;;;;21.15;45.35;100978.22;1782807;79;21395;-83
2022/04/28 06:11:02;;;;;;;5.22;2.58;;;;;;;21.19;45.23;100977.27;1781410;79;20897;-82
2022/04/28 06:13:30;;;;;;;2.98;2.10;;;;;;;21.23;45.13;100990.72;1781512;79;20985;-82
2022/04/28 06:15:56;;;;;;;2.95;2.20;;;;;;;21.27;45.08;101002.78;1778227;79;21196;-83
2022/04/28 06:18:23;;;;;;;2.25;1.75;;;;;;;21.32;45.06;101014.28;1781775;79;21376;-84
2022/04/28 06:20:55;;;;;;;3.02;2.02;;;;;;;21.36;45.00;101013.90;1782036;79;20967;-84
2022/04/28 06:23:21;;;;;;;2.58;2.20;;;;;;;21.38;45.02;101013.84;1777045;79;20982;-87
2022/04/28 06:25:47;;;;;;;5.08;2.22;;;;;;;21.43;44.99;101021.77;1779006;79;21926;-89
2022/04/28 06:28:13;;;;;;;4.17;2.35;;;;;;;21.44;44.99;101022.81;1781194;80;21224;-87
2022/04/28 06:30:40;;;;;;;3.92;2.20;;;;;;;21.47;44.96;101024.14;1780442;79;20928;-87
2022/04/28 06:33:08;;;;;;;2.92;2.00;;;;;;;21.49;44.95;101024.06;1784200;79;20951;-86
2022/04/28 06:35:34;;;;;;;3.00;2.22;;;;;;;21.51;44.96;101025.96;1781392;79;20924;-86
2022/04/28 06:38:01;;;;;;;2.80;1.95;;;;;;;21.51;44.98;101012.12;1785274;79;20948;-86
2022/04/28 06:40:27;;;;;;;4.12;2.20;;;;;;;21.53;44.96;101002.09;1783161;79;21257;-84
2022/04/28 06:42:54;;;;;;;3.90;2.02;;;;;;;21.55;44.93;101017.27;1787099;79;21468;-83
2022/04/28 06:45:20;;;;;;;5.03;2.22;;;;;;;21.57;44.94;101031.59;1777047;79;21022;-83
2022/04/28 06:47:46;;;;;;;4.80;2.25;;;;;;;21.60;44.91;101034.30;1765181;80;20992;-82
2022/04/28 06:50:12;;;;;;;3.62;2.15;;;;;;;21.62;44.91;101038.38;1753787;81;22140;-82
2022/04/28 06:52:39;;;;;;;4.33;2.10;;;;;;;21.63;44.89;101030.89;1772210;79;21900;-82
2022/04/28 06:55:06;;;;;;;2.75;2.05;;;;;;;21.66;44.84;101026.09;1771413;80;20909;-82
2022/04/28 06:57:33;;;;;;;2.58;2.08;;;;;;;21.67;44.83;101028.55;1771391;80;20963;-84
2022/04/28 06:59:59;;;;;;;3.17;2.08;;;;;;;21.70;44.82;101034.83;1774460;80;20986;-83
2022/04/28 07:02:25;;;;;;;3.50;2.27;;;;;;;21.70;44.81;101016.83;1764087;79;21008;-83
2022/04/28 07:04:51;;;;;;;5.92;1.95;;;;;;;21.72;44.77;101024.27;1768168;80;21246;-83
2022/04/28 07:07:18;;;;;;;2.80;2.22;;;;;;;21.74;44.75;101030.84;1766572;80;21499;-84
2022/04/28 07:09:44;;;;;;;5.35;2.08;;;;;;;21.76;44.74;101034.13;1767832;80;21319;-89
2022/04/28 07:12:13;;;;;;;3.15;2.05;;;;;;;21.76;44.74;101033.56;1761512;79;20967;-87
2022/04/28 07:14:39;;;;;;;2.92;2.10;;;;;;;21.78;44.75;101035.42;1765352;79;21060;-82
2022/04/28 07:17:06;;;;;;;4.05;2.12;;;;;;;21.80;44.72;101033.73;1774161;79;21184;-86
2022/04/28 07:19:32;;;;;;;9.95;2.60;;;;;;;21.80;44.72;101035.94;1767535;79;21043;-85
2022/04/28 07:22:02;;;;;;;4.12;2.55;;;;;;;21.81;44.73;101034.78;1748481;81;20980;-88
2022/04/28 07:24:26;;;;;;;3.33;2.17;;;;;;;21.82;44.76;101036.98;1756250;80;21078;-86
2022/04/28 07:26:52;;;;;;;3.35;2.25;;;;;;;21.82;44.76;101046.11;1770070;80;21389;-86
2022/04/28 07:29:18;;;;;;;4.35;2.30;;;;;;;21.84;44.76;101054.94;1741557;80;21277;-84
2022/04/28 07:31:44;;;;;;;4.67;2.17;;;;;;;21.84;44.77;101052.73;1755214;79;20959;-86
2022/04/28 07:34:10;;;;;;;5.47;2.22;;;;;;;21.87;44.81;101067.31;1715197;81;21532;-86
2022/04/28 07:36:36;;;;;;;3.62;2.22;;;;;;;21.87;44.82;101073.67;1765903;79;20980;-87
2022/04/28 07:39:02;;;;;;;5.15;2.20;;;;;;;21.90;44.83;101081.91;1733625;81;20877;-84
2022/04/28 07:41:29;;;;;;;7.22;2.60;;;;;;;21.92;44.79;101077.44;1759691;80;39806;-86
2022/04/28 07:43:56;;;;;;;3.35;2.45;;;;;;;21.93;44.83;101081.88;1743952;81;21033;-88
2022/04/28 07:46:22;;;;;;;5.97;2.22;;;;;;;21.93;44.83;101079.11;1677222;84;21237;-84
2022/04/28 07:48:48;;;;;;;3.40;2.10;;;;;;;21.90;44.86;101087.44;1721914;82;20959;-86
2022/04/28 07:51:14;;;;;;;5.08;2.65;;;;;;;21.90;44.92;101092.98;1715673;82;20996;-88
2022/04/28 07:53:40;;;;;;;3.67;2.30;;;;;;;21.89;44.93;101094.14;1720274;82;21131;-87
2022/04/28 07:56:18;;;;;;;6.12;2.35;;;;;;;21.86;44.97;101091.42;1714515;82;20923;-87
2022/04/28 07:58:44;;;;;;;3.12;2.20;;;;;;;21.86;45.00;101098.91;1715787;78;125768;-63
2022/04/28 08:01:12;;;;;;;5.92;2.10;;;;;;;21.84;45.03;101102.02;1757673;78;126364;-85
2022/04/28 08:03:38;;;;;;;6.05;2.00;;;;;;;21.82;45.06;101104.28;1727927;82;21582;-85
2022/04/28 08:06:05;;;;;;;4.87;2.35;;;;;;;21.81;45.10;101107.39;1741709;81;21281;-85
2022/04/28 08:08:33;;;;;;;3.80;2.58;;;;;;;21.78;45.15;101110.20;1748056;81;21609;-84
2022/04/28 08:11:00;;;;;;;4.95;2.30;;;;;;;21.77;45.19;101111.33;1748154;81;21131;-84
2022/04/28 08:13:26;;;;;;;3.35;2.30;;;;;;;21.76;45.19;101113.88;1745369;81;21437;-84
2022/04/28 08:15:54;;;;;;;3.77;2.00;;;;;;;21.74;45.23;101111.98;1747339;82;21057;-84
2022/04/28 08:18:21;;;;;;;4.53;2.20;;;;;;;21.72;45.28;101104.57;1744966;81;21087;-84
2022/04/28 08:20:47;;;;;;;5.17;2.42;;;;;;;21.70;45.30;101101.29;1748383;82;21515;-84
2022/04/28 08:23:13;;;;;;;2.90;2.37;;;;;;;21.68;45.32;101100.80;1748710;81;21104;-84
2022/04/28 08:25:39;;;;;;;4.78;2.52;;;;;;;21.65;45.36;101097.83;1745716;81;20977;-84
2022/04/28 08:28:06;;;;;;;5.00;2.20;;;;;;;21.65;45.40;101099.22;1748742;81;21506;-84
2022/04/28 08:30:32;;;;;;;5.58;2.50;;;;;;;21.62;45.42;101097.09;1745596;80;21122;-84
2022/04/28 08:32:59;;;;;;;3.62;2.37;;;;;;;21.60;45.45;101089.69;1748978;81;21077;-84
2022/04/28 08:35:34;;;;;;;3.27;2.12;;;;;;;21.59;45.48;101101.32;1719534;80;21144;-84
2022/04/28 08:38:00;;;;;;;5.08;2.50;;;;;;;21.58;45.52;101104.39;1759130;80;21112;-84
2022/04/28 08:40:26;;;;;;;3.62;2.35;;;;;;;21.58;45.54;101114.09;1735619;81;21711;-84
2022/04/28 08:43:12;;;;;;;4.30;2.37;;;;;;;21.55;45.57;101118.32;1705837;82;22123;-84
2022/04/28 08:48:14;;;;;;;3.30;2.20;;;;;;;21.52;45.64;101114.77;1620544;84;20993;-92
2022/04/28 08:50:43;;;;;;;5.53;2.60;;;;;;;21.49;45.68;101110.44;1706854;84;21040;-93
2022/04/28 08:55:59;;;;;;;4.47;2.45;;;;;;;21.47;45.76;101108.58;1675745;83;21445;-92
2022/04/28 08:58:29;;;;;;;3.55;2.70;;;;;;;21.46;45.78;101107.75;1702601;83;21020;-92
2022/04/28 09:00:56;;;;;;;4.67;2.40;;;;;;;21.44;45.81;101105.85;1688197;84;21045;-92
2022/04/28 09:03:32;;;;;;;3.80;2.50;;;;;;;21.43;45.84;101113.90;1710561;83;20997;-92
2022/04/28 09:06:20;;;;;;;6.95;2.58;;;;;;;21.42;45.89;101119.20;1703868;83;21629;-93
2022/04/28 09:09:00;;;;;;;4.80;2.65;;;;;;;21.41;45.90;101113.41;1704621;84;21214;-92
2022/04/28 09:11:35;;;;;;;3.98;2.10;;;;;;;21.40;45.92;101109.83;1681080;85;21514;-92
2022/04/28 09:14:17;;;;;;;3.72;2.58;;;;;;;21.38;45.97;101107.13;1662872;85;21064;-92
2022/04/28 09:17:02;;;;;;;3.40;2.83;;;;;;;21.37;46.00;101107.70;1684427;85;21694;-92
2022/04/28 09:26:51;;;;;;;;;;;;;;;;;;;;;
2022/04/28 09:33:23;;;;;;;5.15;2.45;;;;;;;21.34;46.04;101126.30;1546038;89;21274;-92
2022/04/28 09:36:01;;;;;;;4.35;2.45;;;;;;;21.32;46.03;101126.38;1452612;96;21119;-93
2022/04/28 09:42:39;;;;;;;3.05;2.17;;;;;;;21.31;46.10;101144.92;1615991;88;21056;-93
2022/04/28 09:45:07;;;;;;;3.87;2.45;;;;;;;21.29;46.10;101138.08;1648520;86;21023;-93
2022/04/28 09:47:42;;;;;;;4.05;2.80;;;;;;;21.28;46.12;101143.36;1679493;85;21331;-92
2022/04/28 09:50:17;;;;;;;4.78;2.40;;;;;;;21.28;46.16;101144.17;1678934;83;21269;-93
2022/04/28 09:52:58;;;;;;;3.37;2.20;;;;;;;21.27;46.18;101143.91;1615299;85;21064;-93
2022/04/28 09:55:38;;;;;;;5.47;2.52;;;;;;;21.26;46.20;101144.25;1712825;83;21051;-93
2022/04/28 09:58:07;;;;;;;3.40;2.45;;;;;;;21.26;46.21;101156.11;1680978;85;21067;-93
2022/04/28 10:00:36;;;;;;;4.47;2.22;;;;;;;21.26;46.23;101151.95;1687470;83;21035;-93
2022/04/28 10:03:11;;;;;;;3.67;2.67;;;;;;;21.25;46.23;101139.84;1684980;83;20975;-93
2022/04/28 10:05:45;;;;;;;3.92;2.40;;;;;;;21.26;46.25;101135.95;1713094;83;21004;-93
2022/04/28 10:08:13;;;;;;;5.37;2.62;;;;;;;21.25;46.27;101127.39;1713876;83;21079;-93
2022/04/28 10:10:47;;;;;;;3.17;2.45;;;;;;;21.24;46.28;101128.52;1713968;83;21430;-93
2022/04/28 10:13:19;;;;;;;4.30;2.52;;;;;;;21.23;46.28;101122.16;1708026;83;21054;-92
2022/04/28 10:15:56;;;;;;;3.98;2.45;;;;;;;21.24;46.29;101131.28;1694520;83;21099;-92
2022/04/28 10:18:41;;;;;;;;;;;;;;;;;;;;;
2022/04/28 10:32:58;;;;;;;3.83;2.47;;;;;;;21.20;46.31;101142.16;1711576;83;20979;-94
2022/04/28 10:35:47;;;;;;;5.33;2.52;;;;;;;21.19;46.31;101136.93;1685391;83;20960;-94
2022/04/28 10:38:30;;;;;;;5.97;2.45;;;;;;;21.19;46.29;101139.70;1691428;84;21560;-94
2022/04/28 10:41:08;;;;;;;3.83;2.45;;;;;;;21.19;46.27;101135.55;1693490;84;21068;-94
2022/04/28 10:43:52;;;;;;;3.27;2.27;;;;;;;21.19;46.29;101131.39;1693882;84;21447;-94
2022/04/28 10:46:44;;;;;;;;;;;;;;;;;;;;;
2022/04/28 10:51:38;;;;;;;3.37;2.42;;;;;;;21.16;46.26;101077.52;1627084;85;21470;-94
2022/04/28 10:54:11;;;;;;;4.85;2.60;;;;;;;21.15;46.28;101100.77;1716982;83;21094;-94
2022/04/28 10:56:52;;;;;;;5.62;2.67;;;;;;;21.16;46.27;101138.95;1697770;83;20940;-94
2022/04/28 10:59:48;;;;;;;5.00;2.62;;;;;;;21.16;46.28;101150.02;1716904;82;21148;-94
2022/04/28 11:02:23;;;;;;;3.92;2.45;;;;;;;21.16;46.28;101152.78;1632227;87;21011;-94
2022/04/28 11:04:55;;;;;;;3.33;2.60;;;;;;;21.15;46.27;101156.67;1638472;87;21095;-94
2022/04/28 11:07:34;;;;;;;5.78;2.62;;;;;;;21.14;46.27;101151.70;1636459;87;20984;-94
2022/04/28 11:38:05;;;;;;;;;;;;;;;21.08;46.09;101102.31;1473398;96;21243;-92
2022/04/28 11:41:13;;;;;;;;;;;;;;;;;;;;;
2022/04/28 13:33:46;;;;;;;;;;;;;;;;;;;;;
2022/04/28 13:47:32;;;;;;;;;;;;;;;;;;;;;
2022/04/28 16:13:20;;;;;;;;;;;;;;;;;;;;;
2022/04/28 17:06:02;;;;;;;6.10;3.20;;;;;;;20.63;46.76;101149.80;1504073;95;21076;-96
2022/04/28 18:44:29;;;;;;;4.60;3.00;;;;;;;20.56;46.90;101264.95;1509170;94;21069;-96
2022/04/28 20:33:00;;;;;;;6.65;3.85;;;;;;;20.48;47.06;101298.83;1681351;84;21014;-96
2022/04/28 20:35:26;;;;;;;4.62;3.35;;;;;;;20.47;47.05;101298.00;1620038;87;21109;-77
2022/04/28 20:38:00;;;;;;;4.58;3.50;;;;;;;20.47;47.08;101299.39;1614378;87;21183;-76
2022/04/28 20:40:21;;;;;;;6.65;4.30;;;;;;;20.48;47.09;101295.50;1635313;87;21124;-76
2022/04/28 20:42:47;;;;;;;8.03;3.60;;;;;;;20.48;47.09;101299.66;1627202;87;22065;-76
2022/04/28 20:45:13;;;;;;;4.95;3.52;;;;;;;20.49;47.11;101303.24;1626012;87;21030;-76
2022/04/28 20:47:39;;;;;;;4.75;3.60;;;;;;;20.50;47.10;101300.70;1607520;87;21024;-77
2022/04/28 20:50:08;;;;;;;5.10;3.30;;;;;;;20.49;47.11;101297.71;1627300;87;21551;-76
2022/04/28 20:52:36;;;;;;;6.05;4.00;;;;;;;20.49;47.10;101298.53;1626393;87;21046;-76
2022/04/28 20:55:03;;;;;;;5.47;3.25;;;;;;;20.51;47.10;101300.97;1595648;89;21070;-76
2022/04/28 20:57:29;;;;;;;4.92;4.00;;;;;;;20.50;47.09;101297.39;1606328;87;21064;-76
2022/04/28 20:59:55;;;;;;;4.92;3.37;;;;;;;20.51;47.09;101291.30;1611312;88;21018;-76
2022/04/28 21:02:22;;;;;;;5.72;3.15;;;;;;;20.51;47.08;101292.69;1614953;87;21081;-76
2022/04/28 21:04:48;;;;;;;5.10;3.40;;;;;;;20.51;47.10;101294.89;1633569;87;20975;-76
2022/04/28 21:07:14;;;;;;;4.75;3.17;;;;;;;20.53;47.10;101293.77;1634281;87;21112;-77
2022/04/28 21:09:40;;;;;;;3.92;3.42;;;;;;;20.51;47.10;101299.03;1625909;87;21793;-77
2022/04/28 21:12:08;;;;;;;6.15;3.58;;;;;;;20.51;47.11;101295.45;1633141;87;21089;-76
2022/04/28 21:14:34;;;;;;;4.05;3.10;;;;;;;20.53;47.12;101297.91;1634112;86;21138;-76
2022/04/28 21:17:01;;;;;;;6.45;3.60;;;;;;;20.52;47.10;101295.71;1627059;86;21098;-77
2022/04/28 21:19:27;;;;;;;5.72;3.40;;;;;;;20.52;47.12;101295.71;1641261;86;21077;-76
2022/04/28 21:21:53;;;;;;;5.03;3.17;;;;;;;20.52;47.10;101301.23;1601021;87;21031;-77
2022/04/28 21:24:19;;;;;;;4.55;3.12;;;;;;;20.52;47.13;101297.09;1641358;86;21075;-76
2022/04/28 21:26:45;;;;;;;4.47;3.30;;;;;;;20.52;47.10;101304.00;1622499;87;21076;-76
2022/04/28 21:29:12;;;;;;;4.72;3.40;;;;;;;20.54;47.11;101310.62;1641227;86;21115;-78
2022/04/28 21:31:39;;;;;;;6.92;3.70;;;;;;;20.53;47.10;101312.56;1640958;86;21086;-77
2022/04/28 21:34:05;;;;;;;5.25;3.85;;;;;;;20.53;47.09;101312.56;1631533;84;21096;-76
2022/04/28 21:36:34;;;;;;;3.85;2.80;;;;;;;20.52;47.09;101309.53;1668444;84;22264;-76
2022/04/28 21:39:01;;;;;;;4.90;3.25;;;;;;;20.52;47.08;101304.00;1668386;84;21534;-76